KHFF/HFF METAR and TAF weather

Enter ICAO airport designator
Station Type Date Time Source
KHFF METAR 2019/08/23 15:56 UTC NOAA

KHFF 231556Z AUTO 23007KT 10SM CLR 31/24 A3002 RMK AO2 SLP178 T03090235


Station Type Date Time Source
KHFF Decoded METAR 2019/08/23 15:56 UTC NOAA

Station name not available
Aug 23, 2019 - 11:56 AM EDT / 2019.08.23 1556 UTC
Wind: from the SW (230 degrees) at 8 MPH (7 KT):0
Visibility: 10 mile(s):0
Sky conditions: clear
Temperature: 87.6 F (30.9 C)
Heat index: 96.1 F (35.6 C):1
Dew Point: 74.3 F (23.5 C)
Relative Humidity: 64%
Pressure (altimeter): 30.02 in. Hg (1016 hPa)
ob: KHFF 231556Z AUTO 23007KT 10SM CLR 31/24 A3002 RMK AO2 SLP178 T03090235
cycle: 16

Station Type Date Time Source
KHFF TAF UTC NOAA

Error!

Example: see airport list